createdAt,value
2022-11-29T00:00:07.523Z,966.10
2022-11-29T00:01:07.659Z,966.07
2022-11-29T00:02:07.349Z,966.10
2022-11-29T00:03:07.655Z,966.02
2022-11-29T00:04:07.162Z,966.11
2022-11-29T00:05:07.147Z,966.06
2022-11-29T00:06:07.430Z,966.06
2022-11-29T00:07:07.221Z,966.10
2022-11-29T00:08:07.105Z,966.07
2022-11-29T00:09:07.260Z,966.08
2022-11-29T00:10:07.071Z,966.06
2022-11-29T00:11:07.336Z,966.08
2022-11-29T00:12:07.369Z,966.07
2022-11-29T00:13:07.130Z,966.11
2022-11-29T00:14:07.017Z,966.06
2022-11-29T00:15:07.267Z,966.06
2022-11-29T00:16:07.477Z,966.02
2022-11-29T00:17:07.753Z,966.00
2022-11-29T00:18:07.154Z,966.00
2022-11-29T00:19:07.058Z,966.06
2022-11-29T00:20:07.258Z,965.96
2022-11-29T00:21:06.948Z,966.01
2022-11-29T00:22:06.854Z,965.97
2022-11-29T00:23:06.856Z,966.03
2022-11-29T00:24:06.828Z,966.00
2022-11-29T00:25:06.817Z,965.95
2022-11-29T00:26:07.087Z,966.04
2022-11-29T00:27:07.263Z,966.01
2022-11-29T00:28:07.121Z,966.01
2022-11-29T00:29:06.762Z,966.04
2022-11-29T00:30:06.825Z,965.99
2022-11-29T00:31:07.021Z,965.93
2022-11-29T00:32:06.692Z,966.01
2022-11-29T00:33:06.957Z,966.06
2022-11-29T00:34:06.653Z,965.99
2022-11-29T00:35:09.637Z,966.02
2022-11-29T00:36:07.695Z,966.00
2022-11-29T00:37:06.819Z,965.98
2022-11-29T00:38:06.585Z,965.98
2022-11-29T00:39:07.680Z,966.07
2022-11-29T00:40:06.568Z,966.09
2022-11-29T00:41:06.815Z,965.99
2022-11-29T00:42:06.525Z,965.99
2022-11-29T00:43:06.754Z,966.03
2022-11-29T00:44:06.486Z,965.95
2022-11-29T00:45:06.647Z,965.97
2022-11-29T00:46:06.558Z,965.95
2022-11-29T00:47:06.636Z,965.97
2022-11-29T00:48:06.418Z,965.94
2022-11-29T00:49:06.658Z,966.02
2022-11-29T00:50:06.382Z,965.96
2022-11-29T00:51:06.397Z,965.94
2022-11-29T00:52:06.348Z,965.97
2022-11-29T00:53:06.410Z,965.99
2022-11-29T00:54:06.324Z,965.99
2022-11-29T00:55:06.577Z,965.98
2022-11-29T00:56:06.433Z,966.00
2022-11-29T00:57:06.840Z,966.02
2022-11-29T00:58:06.251Z,966.01
2022-11-29T00:59:06.434Z,966.00
2022-11-29T01:00:06.421Z,966.02
2022-11-29T01:01:06.459Z,965.99
2022-11-29T01:02:06.390Z,966.06
2022-11-29T01:03:06.462Z,965.98
2022-11-29T01:04:06.521Z,966.01
2022-11-29T01:05:06.202Z,966.01
2022-11-29T01:06:06.420Z,966.00
2022-11-29T01:07:06.355Z,966.05
2022-11-29T01:08:06.468Z,966.04
2022-11-29T01:09:06.309Z,966.02
2022-11-29T01:10:06.226Z,966.01
2022-11-29T01:11:06.347Z,966.07
2022-11-29T01:12:06.326Z,966.00
2022-11-29T01:13:06.131Z,966.03
2022-11-29T01:14:05.981Z,966.03
2022-11-29T01:15:06.377Z,965.98
2022-11-29T01:16:06.060Z,966.02
2022-11-29T01:17:06.581Z,966.09
2022-11-29T01:18:05.907Z,966.08
2022-11-29T01:19:06.152Z,966.05
2022-11-29T01:20:06.041Z,966.03
2022-11-29T01:21:05.945Z,966.10
2022-11-29T01:22:05.985Z,966.06
2022-11-29T01:23:06.010Z,966.07
2022-11-29T01:24:05.960Z,966.09
2022-11-29T01:25:05.793Z,966.07
2022-11-29T01:26:07.089Z,966.08
2022-11-29T01:27:05.761Z,966.10
2022-11-29T01:28:05.848Z,966.09
2022-11-29T01:29:05.912Z,966.11
2022-11-29T01:30:06.007Z,966.10
2022-11-29T01:31:05.750Z,966.17
2022-11-29T01:32:05.928Z,966.16
2022-11-29T01:33:05.658Z,966.14
2022-11-29T01:34:05.665Z,966.18
2022-11-29T01:35:05.617Z,966.13
2022-11-29T01:36:05.947Z,966.14
2022-11-29T01:37:05.585Z,966.19
2022-11-29T01:38:05.579Z,966.16
2022-11-29T01:39:05.688Z,966.19
2022-11-29T01:40:05.651Z,966.20
2022-11-29T01:41:05.950Z,966.19
2022-11-29T01:42:05.704Z,966.17
2022-11-29T01:43:06.036Z,966.18
2022-11-29T01:44:05.470Z,966.15
2022-11-29T01:45:05.738Z,966.16
2022-11-29T01:46:05.510Z,966.17
2022-11-29T01:47:05.775Z,966.22
2022-11-29T01:48:05.901Z,966.16
2022-11-29T01:49:05.372Z,966.18
2022-11-29T01:50:05.572Z,966.19
2022-11-29T01:51:05.622Z,966.18
2022-11-29T01:52:05.321Z,966.22
2022-11-29T01:53:05.303Z,966.20
2022-11-29T01:54:05.557Z,966.21
2022-11-29T01:55:05.352Z,966.27
2022-11-29T01:56:05.532Z,966.25
2022-11-29T01:57:05.526Z,966.20
2022-11-29T01:58:05.425Z,966.23
2022-11-29T01:59:05.602Z,966.21
2022-11-29T02:00:05.332Z,966.18
2022-11-29T02:01:05.455Z,966.25
2022-11-29T02:02:05.596Z,966.20
2022-11-29T02:03:05.272Z,966.16
2022-11-29T02:04:05.126Z,966.22
2022-11-29T02:05:05.392Z,966.15
2022-11-29T02:06:05.374Z,966.23
2022-11-29T02:07:05.324Z,966.19
2022-11-29T02:08:05.065Z,966.23
2022-11-29T02:09:05.342Z,966.24
2022-11-29T02:10:05.473Z,966.18
2022-11-29T02:11:05.269Z,966.25
2022-11-29T02:12:05.054Z,966.23
2022-11-29T02:13:05.352Z,966.27
2022-11-29T02:14:05.104Z,966.27
2022-11-29T02:15:05.181Z,966.31
2022-11-29T02:16:05.293Z,966.23
2022-11-29T02:17:05.226Z,966.30
2022-11-29T02:18:05.111Z,966.31
2022-11-29T02:19:05.010Z,966.25
2022-11-29T02:20:06.025Z,966.26
2022-11-29T02:21:04.820Z,966.24
2022-11-29T02:22:05.151Z,966.27
2022-11-29T02:23:05.084Z,966.23
2022-11-29T02:24:04.772Z,966.24
2022-11-29T02:25:04.986Z,966.25
2022-11-29T02:26:04.835Z,966.27
2022-11-29T02:27:05.004Z,966.27
2022-11-29T02:28:05.117Z,966.25
2022-11-29T02:29:05.116Z,966.22
2022-11-29T02:30:04.858Z,966.26
2022-11-29T02:31:05.109Z,966.28
2022-11-29T02:32:04.690Z,966.32
2022-11-29T02:33:04.917Z,966.26
2022-11-29T02:34:04.611Z,966.25
2022-11-29T02:35:04.926Z,966.23
2022-11-29T02:36:04.635Z,966.22
2022-11-29T02:37:11.305Z,966.21
2022-11-29T02:38:06.677Z,966.25
2022-11-29T02:39:04.999Z,966.26
2022-11-29T02:40:04.787Z,966.25
2022-11-29T02:41:04.767Z,966.27
2022-11-29T02:42:04.732Z,966.24
2022-11-29T02:43:04.443Z,966.28
2022-11-29T02:44:04.417Z,966.29
2022-11-29T02:45:04.874Z,966.28
2022-11-29T02:46:04.435Z,966.28
2022-11-29T02:47:04.704Z,966.30
2022-11-29T02:48:04.637Z,966.31
2022-11-29T02:49:04.641Z,966.32
2022-11-29T02:50:04.782Z,966.34
2022-11-29T02:51:04.759Z,966.29
2022-11-29T02:52:04.602Z,966.26
2022-11-29T02:53:04.417Z,966.25
2022-11-29T02:54:04.448Z,966.28
2022-11-29T02:55:04.383Z,966.26
2022-11-29T02:56:04.497Z,966.26
2022-11-29T02:57:04.293Z,966.28
2022-11-29T02:58:04.568Z,966.28
2022-11-29T02:59:04.161Z,966.34
2022-11-29T03:00:04.147Z,966.41
2022-11-29T03:01:04.527Z,966.30
2022-11-29T03:02:04.201Z,966.37
2022-11-29T03:03:04.169Z,966.35
2022-11-29T03:04:04.534Z,966.42
2022-11-29T03:05:04.319Z,966.36
2022-11-29T03:06:04.220Z,966.40
2022-11-29T03:07:04.363Z,966.45
2022-11-29T03:08:04.005Z,966.42
2022-11-29T03:09:03.996Z,966.40
2022-11-29T03:10:04.285Z,966.45
2022-11-29T03:11:04.261Z,966.42
2022-11-29T03:12:04.121Z,966.48
2022-11-29T03:13:03.931Z,966.43
2022-11-29T03:14:04.088Z,966.46
2022-11-29T03:15:04.221Z,966.45
2022-11-29T03:16:04.223Z,966.50
2022-11-29T03:17:04.373Z,966.47
2022-11-29T03:18:03.857Z,966.46
2022-11-29T03:19:03.828Z,966.51
2022-11-29T03:20:03.810Z,966.53
2022-11-29T03:21:04.043Z,966.54
2022-11-29T03:22:03.930Z,966.53
2022-11-29T03:23:04.247Z,966.54
2022-11-29T03:24:03.978Z,966.59
2022-11-29T03:25:04.071Z,966.58
2022-11-29T03:26:03.822Z,966.58
2022-11-29T03:27:03.970Z,966.58
2022-11-29T03:28:03.931Z,966.56
2022-11-29T03:29:03.945Z,966.60
2022-11-29T03:30:03.706Z,966.63
2022-11-29T03:31:03.967Z,966.65
2022-11-29T03:32:03.624Z,966.61
2022-11-29T03:33:03.689Z,966.66
2022-11-29T03:34:03.868Z,966.70
2022-11-29T03:35:03.711Z,966.66
2022-11-29T03:36:03.530Z,966.65
2022-11-29T03:37:03.723Z,966.67
2022-11-29T03:38:03.788Z,966.69
2022-11-29T03:39:03.848Z,966.67
2022-11-29T03:40:03.446Z,966.73
2022-11-29T03:41:03.603Z,966.69
2022-11-29T03:42:03.898Z,966.73
2022-11-29T03:43:03.586Z,966.65
2022-11-29T03:44:03.629Z,966.72
2022-11-29T03:45:03.378Z,966.75
2022-11-29T03:46:03.683Z,966.69
2022-11-29T03:47:03.968Z,966.72
2022-11-29T03:48:03.577Z,966.70
2022-11-29T03:49:03.530Z,966.70
2022-11-29T03:50:03.436Z,966.69
2022-11-29T03:51:03.510Z,966.74
2022-11-29T03:52:04.381Z,966.73
2022-11-29T03:53:03.405Z,966.69
2022-11-29T03:54:03.326Z,966.73
2022-11-29T03:55:03.304Z,966.72
2022-11-29T03:56:03.600Z,966.68
2022-11-29T03:57:03.549Z,966.69
2022-11-29T03:58:03.485Z,966.70
2022-11-29T03:59:03.646Z,966.72
2022-11-29T04:00:03.096Z,966.67
2022-11-29T04:01:03.089Z,966.71
2022-11-29T04:02:03.102Z,966.69
2022-11-29T04:03:03.125Z,966.75
2022-11-29T04:04:03.159Z,966.80
2022-11-29T04:05:03.335Z,966.67
2022-11-29T04:06:03.451Z,966.71
2022-11-29T04:07:03.298Z,966.69
2022-11-29T04:08:03.384Z,966.75
2022-11-29T04:09:03.228Z,966.70
2022-11-29T04:10:03.249Z,966.70
2022-11-29T04:11:02.906Z,966.73
2022-11-29T04:12:02.923Z,966.76
2022-11-29T04:13:02.870Z,966.80
2022-11-29T04:14:02.866Z,966.73
2022-11-29T04:15:02.857Z,966.77
2022-11-29T04:16:03.004Z,966.83
2022-11-29T04:17:02.833Z,966.76
2022-11-29T04:18:02.805Z,966.82
2022-11-29T04:19:02.778Z,966.83
2022-11-29T04:20:02.759Z,966.80
2022-11-29T04:21:02.731Z,966.80
2022-11-29T04:22:02.761Z,966.84
2022-11-29T04:23:02.720Z,966.83
2022-11-29T04:24:02.693Z,966.84
2022-11-29T04:25:02.686Z,966.89
2022-11-29T04:26:02.645Z,966.84
2022-11-29T04:27:02.690Z,966.91
2022-11-29T04:28:02.692Z,966.89
2022-11-29T04:29:02.618Z,966.90
2022-11-29T04:30:02.585Z,966.91
2022-11-29T04:31:02.619Z,966.90
2022-11-29T04:32:02.583Z,966.96
2022-11-29T04:33:02.533Z,966.91
2022-11-29T04:34:02.519Z,966.88
2022-11-29T04:35:02.511Z,966.97
2022-11-29T04:36:02.472Z,966.91
2022-11-29T04:37:02.511Z,966.95
2022-11-29T04:38:02.492Z,966.93
2022-11-29T04:39:02.468Z,966.94
2022-11-29T04:40:02.437Z,966.99
2022-11-29T04:41:02.395Z,967.00
2022-11-29T04:42:02.538Z,966.98
2022-11-29T04:43:02.364Z,966.99
2022-11-29T04:44:02.354Z,967.02
2022-11-29T04:45:02.333Z,967.05
2022-11-29T04:46:02.395Z,967.01
2022-11-29T04:47:02.322Z,967.02
2022-11-29T04:48:02.281Z,966.98
2022-11-29T04:49:02.249Z,967.01
2022-11-29T04:50:02.239Z,966.98
2022-11-29T04:51:02.233Z,967.03
2022-11-29T04:52:02.227Z,967.04
2022-11-29T04:53:02.179Z,967.05
2022-11-29T04:54:02.161Z,967.09
2022-11-29T04:55:02.176Z,967.09
2022-11-29T04:56:02.136Z,967.09
2022-11-29T04:57:02.152Z,967.07
2022-11-29T04:58:02.115Z,967.08
2022-11-29T04:59:02.074Z,967.12
2022-11-29T05:00:02.060Z,967.08
2022-11-29T05:01:02.049Z,967.04
2022-11-29T05:02:02.109Z,967.05
2022-11-29T05:03:02.091Z,967.05
2022-11-29T05:04:01.992Z,967.09
2022-11-29T05:05:01.986Z,967.09
2022-11-29T05:06:01.967Z,967.12
2022-11-29T05:07:01.940Z,967.15
2022-11-29T05:08:01.969Z,967.14
2022-11-29T05:09:01.908Z,967.15
2022-11-29T05:10:01.892Z,967.21
2022-11-29T05:11:01.870Z,967.19
2022-11-29T05:12:01.846Z,967.24
2022-11-29T05:13:01.878Z,967.21
2022-11-29T05:14:01.821Z,967.23
2022-11-29T05:15:01.791Z,967.23
2022-11-29T05:16:01.825Z,967.24
2022-11-29T05:17:01.787Z,967.21
2022-11-29T05:18:01.773Z,967.16
2022-11-29T05:19:01.724Z,967.22
2022-11-29T05:20:01.717Z,967.18
2022-11-29T05:21:01.698Z,967.19
2022-11-29T05:22:01.683Z,967.23
2022-11-29T05:23:01.699Z,967.24
2022-11-29T05:24:01.659Z,967.30
2022-11-29T05:25:01.622Z,967.27
2022-11-29T05:26:01.615Z,967.23
2022-11-29T05:27:01.592Z,967.28
2022-11-29T05:28:04.498Z,967.25
2022-11-29T05:29:03.568Z,967.31
2022-11-29T05:30:01.563Z,967.34
2022-11-29T05:31:01.580Z,967.30
2022-11-29T05:32:01.511Z,967.36
2022-11-29T05:33:01.561Z,967.33
2022-11-29T05:34:01.476Z,967.37
2022-11-29T05:35:01.464Z,967.36
2022-11-29T05:36:01.437Z,967.35
2022-11-29T05:37:01.430Z,967.34
2022-11-29T05:38:01.450Z,967.34
2022-11-29T05:39:01.399Z,967.39
2022-11-29T05:40:01.369Z,967.43
2022-11-29T05:41:01.375Z,967.48
2022-11-29T05:42:01.333Z,967.43
2022-11-29T05:43:01.342Z,967.41
2022-11-29T05:44:01.295Z,967.45
2022-11-29T05:45:01.286Z,967.44
2022-11-29T05:46:01.376Z,967.46
2022-11-29T05:47:01.255Z,967.48
2022-11-29T05:48:01.329Z,967.52
2022-11-29T05:49:01.224Z,967.48
2022-11-29T05:50:01.209Z,967.51
2022-11-29T05:51:01.179Z,967.48
2022-11-29T05:52:01.174Z,967.53
2022-11-29T05:53:01.187Z,967.53
2022-11-29T05:54:01.150Z,967.58
2022-11-29T05:55:01.105Z,967.48
2022-11-29T05:56:01.102Z,967.50
2022-11-29T05:57:01.079Z,967.54
2022-11-29T05:58:01.092Z,967.63
2022-11-29T05:59:01.046Z,967.57
2022-11-29T06:00:01.030Z,967.61
2022-11-29T06:01:00.998Z,967.64
2022-11-29T06:02:01.025Z,967.62
2022-11-29T06:03:01.060Z,967.69
2022-11-29T06:04:00.964Z,967.71
2022-11-29T06:05:00.940Z,967.73
2022-11-29T06:06:00.943Z,967.75
2022-11-29T06:07:00.905Z,967.72
2022-11-29T06:08:00.963Z,967.72
2022-11-29T06:09:00.869Z,967.68
2022-11-29T06:10:01.979Z,967.75
2022-11-29T06:11:01.849Z,967.79
2022-11-29T06:12:00.817Z,967.76
2022-11-29T06:13:00.837Z,967.75
2022-11-29T06:14:00.781Z,967.78
2022-11-29T06:15:00.774Z,967.75
2022-11-29T06:16:00.782Z,967.82
2022-11-29T06:17:00.746Z,967.81
2022-11-29T06:18:00.754Z,967.84
2022-11-29T06:19:00.700Z,967.84
2022-11-29T06:20:00.680Z,967.87
2022-11-29T06:21:00.671Z,967.88
2022-11-29T06:22:00.641Z,967.89
2022-11-29T06:23:00.666Z,967.82
2022-11-29T06:24:00.619Z,967.82
2022-11-29T06:25:00.595Z,967.86
2022-11-29T06:26:03.884Z,967.89
2022-11-29T06:27:01.572Z,967.87
2022-11-29T06:28:00.565Z,967.95
2022-11-29T06:29:00.515Z,967.95
2022-11-29T06:30:01.500Z,967.91
2022-11-29T06:31:00.519Z,967.94
2022-11-29T06:32:00.485Z,967.99
2022-11-29T06:33:00.491Z,967.92
2022-11-29T06:34:00.448Z,968.00
2022-11-29T06:35:00.423Z,967.99
2022-11-29T06:36:00.415Z,968.00
2022-11-29T06:37:00.414Z,967.95
2022-11-29T06:38:00.425Z,967.96
2022-11-29T06:39:00.346Z,967.96
2022-11-29T06:40:00.339Z,968.00
2022-11-29T06:41:02.376Z,968.02
2022-11-29T06:42:01.299Z,967.95
2022-11-29T06:43:00.320Z,967.98
2022-11-29T06:44:00.259Z,968.00
2022-11-29T06:45:00.242Z,968.01
2022-11-29T06:46:00.233Z,968.02
2022-11-29T06:47:00.262Z,968.02
2022-11-29T06:48:00.243Z,968.06
2022-11-29T06:49:02.317Z,968.05
2022-11-29T06:50:01.166Z,968.04
2022-11-29T06:51:00.148Z,968.08
2022-11-29T06:52:00.131Z,968.12
2022-11-29T06:53:00.147Z,968.08
2022-11-29T06:54:00.097Z,968.15
2022-11-29T06:55:00.088Z,968.18
2022-11-29T06:56:00.066Z,968.14
2022-11-29T06:57:00.036Z,968.13
2022-11-29T06:58:00.051Z,968.12
2022-11-29T06:59:00.014Z,968.15
2022-11-29T06:59:59.994Z,968.15
2022-11-29T07:01:00.021Z,968.20
2022-11-29T07:02:00.006Z,968.19
2022-11-29T07:02:59.978Z,968.19
2022-11-29T07:03:59.944Z,968.22
2022-11-29T07:04:59.912Z,968.18
2022-11-29T07:05:59.885Z,968.23
2022-11-29T07:07:00.875Z,968.21
2022-11-29T07:07:59.938Z,968.23
2022-11-29T07:08:59.849Z,968.25
2022-11-29T07:09:59.822Z,968.26
2022-11-29T07:10:59.806Z,968.29
2022-11-29T07:11:59.786Z,968.25
2022-11-29T07:12:59.800Z,968.29
2022-11-29T07:13:59.747Z,968.30
2022-11-29T07:14:59.733Z,968.32
2022-11-29T07:15:59.783Z,968.32
2022-11-29T07:16:59.693Z,968.34
2022-11-29T07:17:59.716Z,968.33
2022-11-29T07:18:59.677Z,968.33
2022-11-29T07:19:59.654Z,968.34
2022-11-29T07:20:59.633Z,968.42
2022-11-29T07:21:59.610Z,968.41
2022-11-29T07:22:59.654Z,968.32
2022-11-29T07:23:59.581Z,968.38
2022-11-29T07:24:59.574Z,968.44
2022-11-29T07:25:59.545Z,968.40
2022-11-29T07:26:59.888Z,968.37
2022-11-29T07:28:00.558Z,968.42
2022-11-29T07:28:59.491Z,968.37
2022-11-29T07:29:59.470Z,968.45
2022-11-29T07:30:59.461Z,968.39
2022-11-29T07:31:59.446Z,968.43
2022-11-29T07:33:00.617Z,968.39
2022-11-29T07:34:00.456Z,968.43
2022-11-29T07:34:59.394Z,968.42
2022-11-29T07:35:59.385Z,968.42
2022-11-29T07:36:59.352Z,968.45
2022-11-29T07:37:59.343Z,968.42
2022-11-29T07:38:59.362Z,968.41
2022-11-29T07:39:59.313Z,968.39
2022-11-29T07:40:59.282Z,968.34
2022-11-29T07:41:59.277Z,968.32
2022-11-29T07:42:59.252Z,968.42
2022-11-29T07:43:59.277Z,968.36
2022-11-29T07:44:59.211Z,968.44
2022-11-29T07:45:59.214Z,968.33
2022-11-29T07:46:59.230Z,968.40
2022-11-29T07:47:59.169Z,968.35
2022-11-29T07:48:59.182Z,968.37
2022-11-29T07:49:59.136Z,968.39
2022-11-29T07:50:59.171Z,968.38
2022-11-29T07:51:59.097Z,968.44
2022-11-29T07:52:59.094Z,968.43
2022-11-29T07:53:59.113Z,968.42
2022-11-29T07:54:59.052Z,968.47
2022-11-29T07:55:59.033Z,968.40
2022-11-29T07:56:59.019Z,968.47
2022-11-29T07:57:58.987Z,968.47
2022-11-29T07:58:59.056Z,968.46
2022-11-29T07:59:58.959Z,968.49
2022-11-29T08:00:58.991Z,968.50
2022-11-29T08:01:58.981Z,968.50
2022-11-29T08:02:58.915Z,968.52
2022-11-29T08:03:58.926Z,968.53
2022-11-29T08:04:58.884Z,968.52
2022-11-29T08:05:58.855Z,968.57
2022-11-29T08:06:58.838Z,968.60
2022-11-29T08:07:58.867Z,968.54
2022-11-29T08:08:58.844Z,968.59
2022-11-29T08:09:58.801Z,968.59
2022-11-29T08:10:58.766Z,968.63
2022-11-29T08:11:58.751Z,968.63
2022-11-29T08:12:58.737Z,968.61
2022-11-29T08:13:58.747Z,968.62
2022-11-29T08:14:58.693Z,968.61
2022-11-29T08:15:58.748Z,968.67
2022-11-29T08:16:58.669Z,968.70
2022-11-29T08:17:58.661Z,968.64
2022-11-29T08:18:58.667Z,968.73
2022-11-29T08:20:03.724Z,968.76
2022-11-29T08:21:00.620Z,968.69
2022-11-29T08:21:58.586Z,968.72
2022-11-29T08:22:58.578Z,968.73
2022-11-29T08:23:58.582Z,968.77
2022-11-29T08:24:58.520Z,968.72
2022-11-29T08:25:58.520Z,968.76
2022-11-29T08:26:58.494Z,968.78
2022-11-29T08:27:58.476Z,968.77
2022-11-29T08:28:58.490Z,968.76
2022-11-29T08:29:58.438Z,968.80
2022-11-29T08:30:58.423Z,968.80
2022-11-29T08:31:58.475Z,968.79
2022-11-29T08:32:58.396Z,968.81
2022-11-29T08:33:58.400Z,968.82
2022-11-29T08:34:58.360Z,968.86
2022-11-29T08:35:58.338Z,968.80
2022-11-29T08:36:58.320Z,968.83
2022-11-29T08:37:58.323Z,968.80
2022-11-29T08:39:05.965Z,968.84
2022-11-29T08:40:00.262Z,968.85
2022-11-29T08:40:58.251Z,968.88
2022-11-29T08:41:58.238Z,968.83
2022-11-29T08:42:58.219Z,968.86
2022-11-29T08:43:58.224Z,968.84
2022-11-29T08:44:58.182Z,968.86
2022-11-29T08:45:58.200Z,968.81
2022-11-29T08:46:58.144Z,968.90
2022-11-29T08:47:58.137Z,968.83
2022-11-29T08:48:58.140Z,968.82
2022-11-29T08:49:58.102Z,968.91
2022-11-29T08:50:58.081Z,968.91
2022-11-29T08:51:58.068Z,968.86
2022-11-29T08:52:58.045Z,968.88
2022-11-29T08:53:58.066Z,968.88
2022-11-29T08:55:03.014Z,968.85
2022-11-29T08:55:59.997Z,968.92
2022-11-29T08:57:37.928Z,968.93
2022-11-29T08:57:59.951Z,968.89
2022-11-29T08:58:58.989Z,968.96
2022-11-29T08:59:57.928Z,968.95
2022-11-29T09:00:58.010Z,968.93
2022-11-29T09:01:57.930Z,968.95
2022-11-29T09:02:57.887Z,968.96
2022-11-29T09:03:57.992Z,968.99
2022-11-29T09:04:57.851Z,969.00
2022-11-29T09:05:57.829Z,969.03
2022-11-29T09:06:57.814Z,968.95
2022-11-29T09:07:57.829Z,969.04
2022-11-29T09:08:57.814Z,969.04
2022-11-29T09:09:57.753Z,968.99
2022-11-29T09:10:57.737Z,968.96
2022-11-29T09:11:57.731Z,969.07
2022-11-29T09:12:57.709Z,969.06
2022-11-29T09:13:57.721Z,969.13
2022-11-29T09:14:57.671Z,969.11
2022-11-29T09:15:57.658Z,969.10
2022-11-29T09:16:57.727Z,969.14
2022-11-29T09:17:57.632Z,969.11
2022-11-29T09:18:57.644Z,969.21
2022-11-29T09:19:57.587Z,969.15
2022-11-29T09:20:57.574Z,969.17
2022-11-29T09:21:57.552Z,969.20
2022-11-29T09:22:57.544Z,969.14
2022-11-29T09:23:57.556Z,969.25
2022-11-29T09:24:57.515Z,969.19
2022-11-29T09:25:57.494Z,969.28
2022-11-29T09:26:57.480Z,969.29
2022-11-29T09:27:57.451Z,969.27
2022-11-29T09:28:57.463Z,969.26
2022-11-29T09:29:57.420Z,969.30
2022-11-29T09:30:57.404Z,969.30
2022-11-29T09:31:57.444Z,969.32
2022-11-29T09:32:57.370Z,969.34
2022-11-29T09:33:57.379Z,969.34
2022-11-29T09:34:57.337Z,969.41
2022-11-29T09:35:57.319Z,969.38
2022-11-29T09:36:57.306Z,969.37
2022-11-29T09:37:57.300Z,969.41
2022-11-29T09:38:57.314Z,969.39
2022-11-29T09:39:57.262Z,969.41
2022-11-29T09:40:57.251Z,969.34
2022-11-29T09:41:57.225Z,969.37
2022-11-29T09:42:57.227Z,969.35
2022-11-29T09:43:57.243Z,969.40
2022-11-29T09:44:57.176Z,969.45
2022-11-29T09:45:57.214Z,969.39
2022-11-29T09:46:58.858Z,969.46
2022-11-29T09:47:58.120Z,969.45
2022-11-29T09:48:57.145Z,969.43
2022-11-29T09:49:57.078Z,969.46
2022-11-29T09:50:57.065Z,969.41
2022-11-29T09:51:57.043Z,969.44
2022-11-29T09:52:57.026Z,969.44
2022-11-29T09:53:57.010Z,969.40
2022-11-29T09:54:57.035Z,969.48
2022-11-29T09:55:56.987Z,969.42
2022-11-29T09:56:56.962Z,969.46
2022-11-29T09:57:56.942Z,969.46
2022-11-29T09:58:56.934Z,969.45
2022-11-29T09:59:56.951Z,969.46
2022-11-29T10:00:56.951Z,969.42
2022-11-29T10:01:56.905Z,969.44
2022-11-29T10:02:56.866Z,969.42
2022-11-29T10:03:56.842Z,969.42
2022-11-29T10:04:56.889Z,969.41
2022-11-29T10:05:56.805Z,969.40
2022-11-29T10:06:56.793Z,969.46
2022-11-29T10:07:56.833Z,969.43
2022-11-29T10:08:56.769Z,969.42
2022-11-29T10:09:56.774Z,969.46
2022-11-29T10:10:56.736Z,969.45
2022-11-29T10:11:56.721Z,969.44
2022-11-29T10:12:56.692Z,969.44
2022-11-29T10:13:56.689Z,969.45
2022-11-29T10:14:56.708Z,969.48
2022-11-29T10:15:56.653Z,969.44
2022-11-29T10:16:56.634Z,969.49
2022-11-29T10:17:56.603Z,969.52
2022-11-29T10:18:56.580Z,969.51
2022-11-29T10:19:56.598Z,969.51
2022-11-29T10:20:56.555Z,969.48
2022-11-29T10:21:56.540Z,969.48
2022-11-29T10:22:56.536Z,969.47
2022-11-29T10:23:56.501Z,969.51
2022-11-29T10:24:56.518Z,969.50
2022-11-29T10:25:56.474Z,969.55
2022-11-29T10:26:56.463Z,969.55
2022-11-29T10:27:56.431Z,969.54
2022-11-29T10:28:56.429Z,969.52
2022-11-29T10:29:57.445Z,969.56
2022-11-29T10:30:56.478Z,969.52
2022-11-29T10:31:57.372Z,969.53
2022-11-29T10:32:56.365Z,969.54
2022-11-29T10:33:56.336Z,969.53
2022-11-29T10:34:56.364Z,969.54
2022-11-29T10:35:56.303Z,969.55
2022-11-29T10:36:56.281Z,969.50
2022-11-29T10:38:29.269Z,969.58
2022-11-29T10:38:58.262Z,969.52
2022-11-29T10:39:56.260Z,969.56
2022-11-29T10:40:56.220Z,969.58
2022-11-29T10:41:56.208Z,969.60
2022-11-29T10:42:56.184Z,969.62
2022-11-29T10:43:56.173Z,969.63
2022-11-29T10:44:56.175Z,969.57
2022-11-29T10:45:57.167Z,969.57
2022-11-29T10:46:56.111Z,969.63
2022-11-29T10:47:56.097Z,969.57
2022-11-29T10:48:57.078Z,969.60
2022-11-29T10:49:56.100Z,969.55
2022-11-29T10:50:56.045Z,969.58
2022-11-29T10:51:56.030Z,969.62
2022-11-29T10:53:00.065Z,969.63
2022-11-29T10:53:57.002Z,969.63
2022-11-29T10:54:56.008Z,969.63
2022-11-29T10:55:55.963Z,969.62
2022-11-29T10:56:55.954Z,969.59
2022-11-29T10:57:55.925Z,969.63
2022-11-29T10:58:55.917Z,969.59
2022-11-29T10:59:55.932Z,969.64
2022-11-29T11:00:55.923Z,969.64
2022-11-29T11:01:55.859Z,969.65
2022-11-29T11:02:55.843Z,969.61
2022-11-29T11:03:55.828Z,969.64
2022-11-29T11:04:55.852Z,969.57
2022-11-29T11:05:55.851Z,969.61
2022-11-29T11:06:55.776Z,969.63
2022-11-29T11:07:55.797Z,969.64
2022-11-29T11:08:55.742Z,969.59
2022-11-29T11:09:55.758Z,969.57
2022-11-29T11:11:01.222Z,969.64
2022-11-29T11:11:57.689Z,969.62
2022-11-29T11:12:55.670Z,969.63
2022-11-29T11:13:55.664Z,969.63
2022-11-29T11:14:55.668Z,969.62
2022-11-29T11:15:55.621Z,969.64
2022-11-29T11:16:55.649Z,969.66
2022-11-29T11:17:55.582Z,969.65
2022-11-29T11:18:55.565Z,969.62
2022-11-29T11:19:55.596Z,969.66
2022-11-29T11:20:55.533Z,969.65
2022-11-29T11:21:55.515Z,969.63
2022-11-29T11:22:55.516Z,969.69
2022-11-29T11:23:55.479Z,969.69
2022-11-29T11:24:55.493Z,969.67
2022-11-29T11:25:55.444Z,969.67
2022-11-29T11:26:55.434Z,969.71
2022-11-29T11:27:55.409Z,969.68
2022-11-29T11:28:55.404Z,969.64
2022-11-29T11:29:55.411Z,969.63
2022-11-29T11:30:55.424Z,969.75
2022-11-29T11:31:55.342Z,969.68
2022-11-29T11:32:55.338Z,969.72
2022-11-29T11:33:55.307Z,969.69
2022-11-29T11:34:55.341Z,969.72
2022-11-29T11:35:55.303Z,969.71
2022-11-29T11:36:55.258Z,969.68
2022-11-29T11:37:55.263Z,969.71
2022-11-29T11:38:55.248Z,969.77
2022-11-29T11:39:55.253Z,969.75
2022-11-29T11:40:58.130Z,969.74
2022-11-29T11:41:56.170Z,969.82
2022-11-29T11:42:55.156Z,969.82
2022-11-29T11:43:55.192Z,969.81
2022-11-29T11:44:55.163Z,969.82
2022-11-29T11:45:55.142Z,969.82
2022-11-29T11:46:55.088Z,969.83
2022-11-29T11:47:55.077Z,969.79
2022-11-29T11:48:55.057Z,969.82
2022-11-29T11:49:55.107Z,969.82
2022-11-29T11:50:55.041Z,969.83
2022-11-29T11:51:54.999Z,969.84
2022-11-29T11:52:54.996Z,969.86
2022-11-29T11:53:54.972Z,969.81
2022-11-29T11:54:54.994Z,969.87
2022-11-29T11:55:54.942Z,969.86
2022-11-29T11:56:54.933Z,969.84
2022-11-29T11:57:54.911Z,969.85
2022-11-29T11:58:54.890Z,969.87
2022-11-29T11:59:54.901Z,969.91
2022-11-29T12:01:04.059Z,969.89
2022-11-29T12:01:56.851Z,969.81
2022-11-29T12:02:54.943Z,969.87
2022-11-29T12:03:54.811Z,969.88
2022-11-29T12:04:54.837Z,969.88
2022-11-29T12:05:54.784Z,969.96
2022-11-29T12:06:54.750Z,969.88
2022-11-29T12:08:10.038Z,969.86
2022-11-29T12:08:56.727Z,969.96
2022-11-29T12:09:54.754Z,969.91
2022-11-29T12:10:54.697Z,969.91
2022-11-29T12:11:54.698Z,969.90
2022-11-29T12:12:54.669Z,969.93
2022-11-29T12:13:54.664Z,969.93
2022-11-29T12:14:54.647Z,969.94
2022-11-29T12:15:54.638Z,969.98
2022-11-29T12:16:54.598Z,969.97
2022-11-29T12:17:54.565Z,969.99
2022-11-29T12:18:54.565Z,969.96
2022-11-29T12:19:54.579Z,969.99
2022-11-29T12:20:54.526Z,969.98
2022-11-29T12:21:54.503Z,970.00
2022-11-29T12:22:54.495Z,970.03
2022-11-29T12:23:54.460Z,970.04
2022-11-29T12:24:54.482Z,970.00
2022-11-29T12:25:54.506Z,970.00
2022-11-29T12:26:57.502Z,970.04
2022-11-29T12:27:55.396Z,970.05